createdAt,value
2022-11-25T00:00:00.978Z,96836.56
2022-11-25T00:02:27.511Z,96843.59
2022-11-25T00:04:53.902Z,96841.50
2022-11-25T00:07:20.251Z,96839.25
2022-11-25T00:09:46.644Z,96831.47
2022-11-25T00:12:12.988Z,96827.09
2022-11-25T00:14:40.414Z,96830.13
2022-11-25T00:17:06.842Z,96825.84
2022-11-25T00:19:34.712Z,96823.63
2022-11-25T00:22:01.061Z,96818.13
2022-11-25T00:24:27.559Z,96818.09
2022-11-25T00:26:53.871Z,96825.22
2022-11-25T00:29:20.276Z,96827.09
2022-11-25T00:31:46.618Z,96833.66
2022-11-25T00:34:13.787Z,96829.63
2022-11-25T00:36:40.296Z,96834.66
2022-11-25T00:39:09.830Z,96833.34
2022-11-25T00:41:54.874Z,96838.13
2022-11-25T00:44:38.032Z,96845.66
2022-11-25T00:47:04.904Z,96853.38
2022-11-25T00:49:32.673Z,96845.84
2022-11-25T00:51:59.064Z,96847.78
2022-11-25T00:54:25.769Z,96851.59
2022-11-25T00:56:52.136Z,96865.66
2022-11-25T00:59:18.913Z,96863.06
2022-11-25T01:01:45.408Z,96864.84
2022-11-25T01:04:11.797Z,96876.22
2022-11-25T01:06:38.794Z,96878.91
2022-11-25T01:09:06.036Z,96888.97
2022-11-25T01:11:33.393Z,96886.44
2022-11-25T01:14:01.618Z,96893.97
2022-11-25T01:16:29.088Z,96895.91
2022-11-25T01:18:55.511Z,96890.91
2022-11-25T01:21:24.216Z,96891.47
2022-11-25T01:23:50.838Z,96887.56
2022-11-25T01:26:21.011Z,96892.34
2022-11-25T01:28:47.536Z,96891.19
2022-11-25T01:31:16.573Z,96890.69
2022-11-25T01:33:43.505Z,96887.19
2022-11-25T01:36:13.749Z,96885.75
2022-11-25T01:38:40.292Z,96882.19
2022-11-25T01:41:07.756Z,96881.63
2022-11-25T01:43:34.559Z,96876.94
2022-11-25T01:46:21.515Z,96887.50
2022-11-25T01:48:50.220Z,96887.94
2022-11-25T01:51:21.450Z,96881.06
2022-11-25T01:53:48.480Z,96886.41
2022-11-25T01:56:16.324Z,96878.94
2022-11-25T01:58:43.343Z,96878.50
2022-11-25T02:01:13.102Z,96883.78
2022-11-25T02:03:42.638Z,96879.28
2022-11-25T02:06:18.506Z,96881.44
2022-11-25T02:08:48.607Z,96881.00
2022-11-25T02:11:16.540Z,96880.44
2022-11-25T02:13:43.516Z,96874.41
2022-11-25T02:16:09.888Z,96864.41
2022-11-25T02:18:36.294Z,96862.38
2022-11-25T02:21:02.772Z,96870.53
2022-11-25T02:23:29.083Z,96870.84
2022-11-25T02:25:56.502Z,96871.53
2022-11-25T02:28:24.098Z,96873.00
2022-11-25T02:30:50.637Z,96876.75
2022-11-25T02:33:17.447Z,96868.13
2022-11-25T02:35:48.145Z,96865.78
2022-11-25T02:38:23.564Z,96869.91
2022-11-25T02:40:53.032Z,96867.94
2022-11-25T02:43:21.800Z,96870.16
2022-11-25T02:45:51.247Z,96869.41
2022-11-25T02:48:17.679Z,96867.16
2022-11-25T02:50:44.370Z,96874.97
2022-11-25T02:53:19.048Z,96865.19
2022-11-25T02:55:45.566Z,96859.97
2022-11-25T02:58:12.172Z,96860.41
2022-11-25T03:00:40.961Z,96863.06
2022-11-25T03:03:07.464Z,96860.41
2022-11-25T03:05:38.825Z,96847.91
2022-11-25T03:08:05.564Z,96859.44
2022-11-25T03:10:32.104Z,96862.88
2022-11-25T03:12:58.413Z,96858.63
2022-11-25T03:15:24.878Z,96859.56
2022-11-25T03:17:56.508Z,96864.53
2022-11-25T03:20:22.991Z,96867.81
2022-11-25T03:22:51.832Z,96874.63
2022-11-25T03:25:18.676Z,96880.78
2022-11-25T03:27:45.501Z,96878.19
2022-11-25T03:30:19.798Z,96878.31
2022-11-25T03:32:46.628Z,96877.81
2022-11-25T03:35:13.766Z,96883.38
2022-11-25T03:37:41.263Z,96887.53
2022-11-25T03:40:08.502Z,96886.84
2022-11-25T03:42:35.266Z,96894.53
2022-11-25T03:45:02.139Z,96893.88
2022-11-25T03:47:28.529Z,96892.97
2022-11-25T03:49:54.925Z,96883.50
2022-11-25T03:52:23.569Z,96887.38
2022-11-25T03:54:50.062Z,96885.22
2022-11-25T03:57:16.820Z,96886.81
2022-11-25T03:59:43.192Z,96881.22
2022-11-25T04:02:12.636Z,96889.28
2022-11-25T04:04:39.069Z,96884.47
2022-11-25T04:07:05.717Z,96886.31
2022-11-25T04:09:32.140Z,96877.31
2022-11-25T04:12:17.047Z,96892.06
2022-11-25T04:14:47.527Z,96884.78
2022-11-25T04:17:13.874Z,96882.28
2022-11-25T04:19:42.260Z,96892.22
2022-11-25T04:22:08.606Z,96889.72
2022-11-25T04:24:36.280Z,96896.38
2022-11-25T04:27:02.762Z,96894.22
2022-11-25T04:29:29.169Z,96891.50
2022-11-25T04:31:55.630Z,96897.00
2022-11-25T04:34:21.939Z,96896.03
2022-11-25T04:36:48.285Z,96895.13
2022-11-25T04:39:14.611Z,96904.91
2022-11-25T04:41:42.223Z,96899.50
2022-11-25T04:44:08.546Z,96898.78
2022-11-25T04:46:38.187Z,96900.13
2022-11-25T04:49:05.911Z,96899.41
2022-11-25T04:51:33.356Z,96905.44
2022-11-25T04:53:59.713Z,96902.31
2022-11-25T04:56:26.185Z,96896.88
2022-11-25T04:59:12.291Z,96894.72
2022-11-25T05:01:39.015Z,96900.81
2022-11-25T05:04:05.385Z,96899.59
2022-11-25T05:06:32.714Z,96893.84
2022-11-25T05:08:59.030Z,96890.06
2022-11-25T05:11:27.463Z,96901.06
2022-11-25T05:13:53.791Z,96888.34
2022-11-25T05:16:20.246Z,96884.53
2022-11-25T05:18:46.615Z,96872.88
2022-11-25T05:21:13.022Z,96885.41
2022-11-25T05:23:39.342Z,96878.00
2022-11-25T05:26:05.766Z,96878.47
2022-11-25T05:28:32.544Z,96871.44
2022-11-25T05:30:59.038Z,96873.50
2022-11-25T05:33:25.519Z,96875.41
2022-11-25T05:36:00.083Z,96883.47
2022-11-25T05:38:26.864Z,96886.31
2022-11-25T05:40:53.466Z,96878.69
2022-11-25T05:43:20.076Z,96876.47
2022-11-25T05:45:46.575Z,96883.38
2022-11-25T05:48:13.010Z,96888.34
2022-11-25T05:50:39.502Z,96890.22
2022-11-25T05:53:05.941Z,96892.56
2022-11-25T05:55:32.248Z,96899.41
2022-11-25T05:57:58.938Z,96904.47
2022-11-25T06:00:26.892Z,96905.38
2022-11-25T06:02:53.479Z,96912.47
2022-11-25T06:05:20.001Z,96904.03
2022-11-25T06:07:46.415Z,96899.16
2022-11-25T06:10:12.852Z,96899.72
2022-11-25T06:12:39.172Z,96901.53
2022-11-25T06:15:06.012Z,96901.63
2022-11-25T06:17:32.339Z,96901.88
2022-11-25T06:19:59.803Z,96900.69
2022-11-25T06:22:26.126Z,96909.00
2022-11-25T06:25:00.477Z,96909.19
2022-11-25T06:27:38.989Z,96908.34
2022-11-25T06:30:16.115Z,96902.63
2022-11-25T06:32:42.952Z,96908.53
2022-11-25T06:35:09.475Z,96906.44
2022-11-25T06:37:35.847Z,96914.56
2022-11-25T06:40:02.560Z,96919.19
2022-11-25T06:42:28.919Z,96924.56
2022-11-25T06:44:56.443Z,96929.91
2022-11-25T06:47:22.985Z,96929.06
2022-11-25T06:49:49.532Z,96930.13
2022-11-25T06:52:16.008Z,96937.69
2022-11-25T06:54:42.539Z,96921.03
2022-11-25T06:57:09.018Z,96925.97
2022-11-25T06:59:38.482Z,96921.88
2022-11-25T07:02:04.932Z,96924.91
2022-11-25T07:04:31.383Z,96929.47
2022-11-25T07:06:57.833Z,96928.50
2022-11-25T07:09:24.998Z,96919.50
2022-11-25T07:11:51.405Z,96919.09
2022-11-25T07:14:18.773Z,96912.69
2022-11-25T07:16:45.736Z,96926.31
2022-11-25T07:19:13.408Z,96921.81
2022-11-25T07:21:39.718Z,96925.22
2022-11-25T07:24:06.994Z,96930.84
2022-11-25T07:26:35.339Z,96929.69
2022-11-25T07:29:03.748Z,96924.03
2022-11-25T07:31:33.571Z,96928.25
2022-11-25T07:34:00.744Z,96927.47
2022-11-25T07:36:27.739Z,96930.88
2022-11-25T07:38:55.197Z,96937.03
2022-11-25T07:41:22.966Z,96939.06
2022-11-25T07:43:51.535Z,96948.59
2022-11-25T07:46:26.501Z,96953.78
2022-11-25T07:49:01.165Z,96964.94
2022-11-25T07:51:29.054Z,96968.97
2022-11-25T07:53:58.875Z,96970.53
2022-11-25T07:56:25.272Z,96982.38
2022-11-25T07:58:52.046Z,96982.38
2022-11-25T08:01:19.076Z,96986.81
2022-11-25T08:03:46.454Z,96995.22
2022-11-25T08:06:14.082Z,96999.50
2022-11-25T08:08:41.275Z,96995.63
2022-11-25T08:11:09.096Z,97002.66
2022-11-25T08:13:35.508Z,96998.94
2022-11-25T08:16:02.168Z,96994.09
2022-11-25T08:18:28.732Z,96997.13
2022-11-25T08:20:58.887Z,96992.69
2022-11-25T08:23:25.199Z,96991.81
2022-11-25T08:25:56.728Z,96993.91
2022-11-25T08:28:23.265Z,96993.25
2022-11-25T08:30:49.757Z,97001.22
2022-11-25T08:33:16.551Z,96997.13
2022-11-25T08:35:55.129Z,97007.97
2022-11-25T08:38:21.515Z,97012.28
2022-11-25T08:40:48.939Z,97008.22
2022-11-25T08:43:15.386Z,97010.56
2022-11-25T08:45:41.808Z,97015.31
2022-11-25T08:48:08.259Z,97023.34
2022-11-25T08:50:35.170Z,97016.50
2022-11-25T08:53:02.467Z,97022.75
2022-11-25T08:55:29.378Z,97028.88
2022-11-25T08:57:55.722Z,97027.38
2022-11-25T09:00:22.649Z,97029.16
2022-11-25T09:02:49.849Z,97031.66
2022-11-25T09:05:17.240Z,97029.47
2022-11-25T09:07:43.616Z,97029.97
2022-11-25T09:10:13.785Z,97019.59
2022-11-25T09:12:40.249Z,97023.28
2022-11-25T09:15:06.894Z,97020.66
2022-11-25T09:17:35.857Z,97019.25
2022-11-25T09:20:02.250Z,97027.16
2022-11-25T09:22:28.582Z,97027.97
2022-11-25T09:24:55.156Z,97027.72
2022-11-25T09:27:21.469Z,97022.38
2022-11-25T09:29:47.784Z,97027.06
2022-11-25T09:32:14.140Z,97037.88
2022-11-25T09:34:41.562Z,97029.41
2022-11-25T09:37:08.059Z,97025.25
2022-11-25T09:39:35.700Z,97021.28
2022-11-25T09:42:24.061Z,97022.63
2022-11-25T09:45:20.628Z,97012.16
2022-11-25T09:47:50.599Z,97010.81
2022-11-25T09:50:34.462Z,97008.38
2022-11-25T09:53:19.413Z,97003.81
2022-11-25T09:55:47.444Z,97009.25
2022-11-25T09:58:24.520Z,97005.47
2022-11-25T10:00:52.032Z,97008.47
2022-11-25T10:03:27.140Z,97002.19
2022-11-25T10:05:59.269Z,97006.06
2022-11-25T10:08:29.309Z,97010.72
2022-11-25T10:11:01.296Z,97004.25
2022-11-25T10:13:32.460Z,97003.03
2022-11-25T10:16:02.501Z,97006.59
2022-11-25T10:18:37.931Z,97011.00
2022-11-25T10:21:04.505Z,97007.41
2022-11-25T10:23:33.920Z,97015.38
2022-11-25T10:26:21.371Z,97017.84
2022-11-25T10:28:56.881Z,97015.91
2022-11-25T10:31:32.582Z,97015.09
2022-11-25T10:34:00.053Z,97015.91
2022-11-25T10:36:29.262Z,97012.38
2022-11-25T10:39:06.447Z,97003.28
2022-11-25T10:41:37.064Z,97003.28
2022-11-25T10:44:03.467Z,96997.09
2022-11-25T10:47:21.344Z,96991.16
2022-11-25T10:49:50.305Z,96991.44
2022-11-25T10:52:20.730Z,96984.25
2022-11-25T10:54:59.453Z,96983.78
2022-11-25T10:57:29.696Z,96996.28
2022-11-25T10:59:57.554Z,96989.56
2022-11-25T11:02:23.946Z,96979.25
2022-11-25T11:04:56.470Z,96992.59
2022-11-25T11:07:23.291Z,96992.63
2022-11-25T11:09:50.010Z,96980.41
2022-11-25T11:12:24.250Z,96983.00
2022-11-25T11:14:51.126Z,96979.16
2022-11-25T11:17:36.885Z,96976.06
2022-11-25T11:20:06.934Z,96970.94
2022-11-25T11:22:34.427Z,96973.78
2022-11-25T11:25:07.809Z,96973.19
2022-11-25T11:27:36.887Z,96970.78
2022-11-25T11:30:23.920Z,96960.69
2022-11-25T11:33:06.262Z,96967.00
2022-11-25T11:35:40.394Z,96970.25
2022-11-25T11:38:23.535Z,96957.16
2022-11-25T11:40:52.004Z,96948.97
2022-11-25T11:43:24.641Z,96948.19
2022-11-25T11:46:26.742Z,96950.78
2022-11-25T11:48:56.222Z,96955.84
2022-11-25T11:51:37.876Z,96963.69
2022-11-25T11:54:34.005Z,96963.75
2022-11-25T11:57:03.727Z,96965.25
2022-11-25T11:59:46.779Z,96960.09
2022-11-25T12:02:13.222Z,96957.28
2022-11-25T12:04:51.172Z,96955.94
2022-11-25T12:07:23.505Z,96964.94
2022-11-25T12:10:01.269Z,96972.63
2022-11-25T12:12:49.075Z,96960.94
2022-11-25T12:15:21.577Z,96957.97
2022-11-25T12:17:57.953Z,96959.50
2022-11-25T12:20:42.776Z,96956.19
2022-11-25T12:23:19.121Z,96962.56
2022-11-25T12:25:51.983Z,96951.81
2022-11-25T12:28:37.363Z,96959.31
2022-11-25T12:31:16.806Z,96963.22
2022-11-25T12:34:03.422Z,96958.50
2022-11-25T12:36:34.449Z,96956.13
2022-11-25T12:39:24.110Z,96962.88
2022-11-25T12:41:55.982Z,96965.22
2022-11-25T12:44:28.310Z,96967.31
2022-11-25T12:46:56.876Z,96968.41
2022-11-25T12:49:25.016Z,96966.63
2022-11-25T12:52:10.842Z,96972.47
2022-11-25T12:54:49.528Z,96974.94
2022-11-25T12:57:15.834Z,96977.78
2022-11-25T12:59:50.467Z,96981.41
2022-11-25T13:02:19.596Z,96983.09
2022-11-25T13:04:48.806Z,96991.13
2022-11-25T13:07:26.827Z,96987.59
2022-11-25T13:10:07.232Z,96988.69
2022-11-25T13:12:52.318Z,96984.78
2022-11-25T13:15:26.481Z,96988.28
2022-11-25T13:17:59.086Z,96988.38
2022-11-25T13:20:29.672Z,96988.44
2022-11-25T13:23:01.905Z,96981.38
2022-11-25T13:25:31.011Z,96976.50
2022-11-25T13:28:00.938Z,96984.09
2022-11-25T13:30:33.643Z,96982.09
2022-11-25T13:33:12.151Z,96980.22
2022-11-25T13:35:48.228Z,96981.75
2022-11-25T13:38:29.758Z,96983.97
2022-11-25T13:40:56.824Z,96985.56
2022-11-25T13:43:23.343Z,96993.03
2022-11-25T13:45:50.939Z,96996.78
2022-11-25T13:48:18.293Z,96989.53
2022-11-25T13:53:34.852Z,96998.28
2022-11-25T13:56:37.662Z,96995.41
2022-11-25T13:59:09.956Z,96982.72
2022-11-25T14:01:40.291Z,96988.00
2022-11-25T14:04:11.656Z,97002.34
2022-11-25T14:07:01.342Z,97015.84
2022-11-25T14:09:46.261Z,97023.00
2022-11-25T14:12:18.644Z,97042.19
2022-11-25T14:14:59.465Z,97039.63
2022-11-25T14:17:34.913Z,97042.81
2022-11-25T14:20:21.235Z,97038.56
2022-11-25T14:22:56.591Z,97040.34
2022-11-25T14:25:26.529Z,97041.75
2022-11-25T14:28:03.824Z,97044.88
2022-11-25T14:30:31.317Z,97045.41
2022-11-25T14:33:03.600Z,97040.06
2022-11-25T14:35:34.011Z,97050.38
2022-11-25T14:38:03.207Z,97056.53
2022-11-25T14:40:29.606Z,97061.63
2022-11-25T14:43:02.560Z,97056.81
2022-11-25T14:45:36.091Z,97052.00
2022-11-25T14:48:15.990Z,97055.72
2022-11-25T14:50:59.530Z,97057.91
2022-11-25T14:53:26.526Z,97059.00
2022-11-25T14:55:53.075Z,97060.50
2022-11-25T14:58:19.645Z,97064.22
2022-11-25T15:01:06.395Z,97067.22
2022-11-25T15:03:33.209Z,97066.28
2022-11-25T15:06:06.333Z,97073.81
2022-11-25T15:08:46.070Z,97071.34
2022-11-25T15:11:20.707Z,97070.38
2022-11-25T15:13:49.398Z,97075.31
2022-11-25T15:16:17.575Z,97076.56
2022-11-25T15:19:02.909Z,97076.16
2022-11-25T15:21:30.583Z,97079.56
2022-11-25T15:23:57.002Z,97076.53
2022-11-25T15:26:25.063Z,97083.13
2022-11-25T15:28:55.835Z,97088.06
2022-11-25T15:31:25.668Z,97085.59
2022-11-25T15:33:56.370Z,97089.72
2022-11-25T15:36:24.933Z,97086.41
2022-11-25T15:38:51.458Z,97098.47
2022-11-25T15:41:17.796Z,97090.81
2022-11-25T15:43:46.455Z,97097.94
2022-11-25T15:46:12.873Z,97101.22
2022-11-25T15:48:47.817Z,97099.59
2022-11-25T15:51:32.387Z,97104.69
2022-11-25T15:54:01.602Z,97097.97
2022-11-25T15:56:28.044Z,97105.09
2022-11-25T15:58:58.762Z,97105.22
2022-11-25T16:01:29.461Z,97102.06
2022-11-25T16:04:09.483Z,97102.19
2022-11-25T16:06:35.817Z,97103.28
2022-11-25T16:09:03.847Z,97107.00
2022-11-25T16:11:33.569Z,97111.91
2022-11-25T16:14:36.436Z,97115.91
2022-11-25T16:17:09.760Z,97110.03
2022-11-25T16:19:41.658Z,97121.31
2022-11-25T16:22:18.789Z,97121.59
2022-11-25T16:24:54.877Z,97123.34
2022-11-25T16:27:28.958Z,97124.34
2022-11-25T16:29:57.936Z,97120.19
2022-11-25T16:32:28.621Z,97123.78
2022-11-25T16:34:56.569Z,97130.78
2022-11-25T16:37:23.329Z,97133.91
2022-11-25T16:39:49.658Z,97138.56
2022-11-25T16:42:17.630Z,97138.31
2022-11-25T16:44:47.964Z,97150.16
2022-11-25T16:47:14.541Z,97148.88
2022-11-25T16:49:42.091Z,97155.63
2022-11-25T16:52:11.850Z,97152.88
2022-11-25T16:54:39.284Z,97164.28
2022-11-25T16:57:07.604Z,97153.97
2022-11-25T16:59:39.440Z,97160.56
2022-11-25T17:02:26.571Z,97160.13
2022-11-25T17:04:53.259Z,97163.16
2022-11-25T17:07:35.821Z,97161.81
2022-11-25T17:10:02.715Z,97169.44
2022-11-25T17:12:31.260Z,97171.97
2022-11-25T17:14:59.962Z,97183.44
2022-11-25T17:17:27.061Z,97179.50
2022-11-25T17:19:53.838Z,97183.31
2022-11-25T17:22:22.713Z,97178.63
2022-11-25T17:24:49.318Z,97188.25
2022-11-25T17:27:21.711Z,97186.34
2022-11-25T17:29:48.288Z,97193.88
2022-11-25T17:32:15.396Z,97198.00
2022-11-25T17:34:41.903Z,97207.03
2022-11-25T17:37:24.546Z,97199.47
2022-11-25T17:39:59.887Z,97204.06
2022-11-25T17:42:30.669Z,97206.97
2022-11-25T17:44:57.334Z,97215.91
2022-11-25T17:47:23.792Z,97209.94
2022-11-25T17:49:50.248Z,97212.25
2022-11-25T17:52:16.596Z,97217.59
2022-11-25T17:54:44.013Z,97224.78
2022-11-25T17:57:17.376Z,97226.00
2022-11-25T17:59:43.923Z,97230.91
2022-11-25T18:02:18.425Z,97229.41
2022-11-25T18:04:44.886Z,97230.78
2022-11-25T18:07:11.279Z,97233.81
2022-11-25T18:09:37.636Z,97244.75
2022-11-25T18:12:09.674Z,97253.84
2022-11-25T18:14:37.334Z,97254.94
2022-11-25T18:17:05.884Z,97259.59
2022-11-25T18:19:33.007Z,97258.09
2022-11-25T18:22:01.168Z,97264.16
2022-11-25T18:24:27.817Z,97270.63
2022-11-25T18:26:54.191Z,97275.59
2022-11-25T18:29:25.581Z,97279.03
2022-11-25T18:31:56.472Z,97277.13
2022-11-25T18:34:23.788Z,97274.25
2022-11-25T18:36:50.843Z,97273.56
2022-11-25T18:39:18.865Z,97282.00
2022-11-25T18:41:46.755Z,97275.31
2022-11-25T18:44:25.875Z,97281.09
2022-11-25T18:46:52.806Z,97283.56
2022-11-25T18:49:19.207Z,97278.09
2022-11-25T18:51:46.556Z,97298.84
2022-11-25T18:54:13.290Z,97294.84
2022-11-25T18:56:40.638Z,97292.78
2022-11-25T18:59:08.952Z,97297.03
2022-11-25T19:01:35.298Z,97299.81
2022-11-25T19:04:01.848Z,97304.34
2022-11-25T19:06:29.232Z,97313.28
2022-11-25T19:08:57.793Z,97312.72
2022-11-25T19:11:33.364Z,97310.00
2022-11-25T19:14:05.152Z,97327.41
2022-11-25T19:16:33.709Z,97327.13
2022-11-25T19:19:00.161Z,97327.84
2022-11-25T19:21:26.830Z,97332.38
2022-11-25T19:23:53.209Z,97345.44
2022-11-25T19:26:22.174Z,97338.59
2022-11-25T19:28:51.466Z,97345.72
2022-11-25T19:31:18.663Z,97354.13
2022-11-25T19:33:47.331Z,97353.72
2022-11-25T19:36:20.971Z,97365.94
2022-11-25T19:38:47.354Z,97364.16
2022-11-25T19:41:13.700Z,97357.41
2022-11-25T19:43:40.032Z,97356.75
2022-11-25T19:46:06.652Z,97374.47
2022-11-25T19:48:35.344Z,97371.00
2022-11-25T19:51:04.617Z,97379.16
2022-11-25T19:53:34.189Z,97381.75
2022-11-25T19:56:05.118Z,97381.75
2022-11-25T19:58:31.557Z,97388.91
2022-11-25T20:01:00.960Z,97390.97
2022-11-25T20:03:30.069Z,97394.66
2022-11-25T20:05:59.738Z,97404.03
2022-11-25T20:08:27.770Z,97413.63
2022-11-25T20:10:54.956Z,97412.47
2022-11-25T20:13:23.312Z,97422.91
2022-11-25T20:15:50.146Z,97425.69
2022-11-25T20:18:18.576Z,97428.69
2022-11-25T20:20:45.501Z,97433.38
2022-11-25T20:23:30.646Z,97441.06
2022-11-25T20:25:57.042Z,97446.41
2022-11-25T20:28:25.771Z,97437.66
2022-11-25T20:30:52.983Z,97446.16
2022-11-25T20:33:24.421Z,97449.47
2022-11-25T20:35:52.826Z,97454.25
2022-11-25T20:38:19.308Z,97464.69
2022-11-25T20:40:46.368Z,97464.44
2022-11-25T20:43:21.725Z,97470.19
2022-11-25T20:45:48.110Z,97473.34
2022-11-25T20:48:14.487Z,97475.13
2022-11-25T20:50:41.032Z,97469.38
2022-11-25T20:53:15.487Z,97471.81
2022-11-25T20:55:42.717Z,97471.56
2022-11-25T20:58:18.199Z,97477.22
2022-11-25T21:00:44.643Z,97471.72
2022-11-25T21:03:11.182Z,97479.56
2022-11-25T21:05:37.617Z,97489.06
2022-11-25T21:08:09.637Z,97484.28
2022-11-25T21:10:35.949Z,97488.78
2022-11-25T21:13:09.399Z,97489.50
2022-11-25T21:15:35.940Z,97490.69
2022-11-25T21:18:02.247Z,97491.09
2022-11-25T21:20:28.640Z,97491.38
2022-11-25T21:22:58.083Z,97494.56
2022-11-25T21:25:25.245Z,97498.59
2022-11-25T21:27:52.169Z,97498.91
2022-11-25T21:30:22.841Z,97503.44
2022-11-25T21:32:51.568Z,97508.22
2022-11-25T21:35:17.915Z,97515.22
2022-11-25T21:37:44.536Z,97520.72
2022-11-25T21:40:24.031Z,97519.63
2022-11-25T21:42:50.690Z,97518.69
2022-11-25T21:45:17.215Z,97522.09
2022-11-25T21:47:43.740Z,97525.22
2022-11-25T21:50:14.582Z,97524.56
2022-11-25T21:52:42.040Z,97534.97
2022-11-25T21:55:10.032Z,97540.25
2022-11-25T21:57:36.472Z,97535.47
2022-11-25T22:00:03.265Z,97530.00
2022-11-25T22:02:30.146Z,97532.63
2022-11-25T22:04:57.105Z,97543.06
2022-11-25T22:07:29.199Z,97539.16
2022-11-25T22:09:58.047Z,97537.66
2022-11-25T22:12:28.964Z,97539.69
2022-11-25T22:14:56.640Z,97546.44
2022-11-25T22:17:23.055Z,97544.38
2022-11-25T22:19:49.647Z,97542.50
2022-11-25T22:22:16.774Z,97547.00
2022-11-25T22:24:43.267Z,97551.13
2022-11-25T22:27:25.972Z,97562.09
2022-11-25T22:29:52.736Z,97561.97
2022-11-25T22:32:19.104Z,97563.72
2022-11-25T22:34:45.564Z,97550.03
2022-11-25T22:37:16.593Z,97568.31
2022-11-25T22:39:42.947Z,97572.63
2022-11-25T22:42:13.912Z,97573.72
2022-11-25T22:44:46.034Z,97580.56
2022-11-25T22:47:20.716Z,97576.88
2022-11-25T22:49:47.621Z,97587.19
2022-11-25T22:52:28.927Z,97583.16
2022-11-25T22:54:58.021Z,97592.28
2022-11-25T22:57:24.342Z,97596.06
2022-11-25T22:59:50.668Z,97592.75
2022-11-25T23:02:27.328Z,97590.13
2022-11-25T23:04:55.189Z,97600.19
2022-11-25T23:07:22.413Z,97595.78
2022-11-25T23:09:49.155Z,97597.44
2022-11-25T23:12:15.948Z,97591.28
2022-11-25T23:14:42.943Z,97603.81
2022-11-25T23:17:22.987Z,97603.13
2022-11-25T23:19:51.054Z,97597.78
2022-11-25T23:22:17.923Z,97605.22
2022-11-25T23:24:45.524Z,97605.41
2022-11-25T23:27:12.385Z,97608.97
2022-11-25T23:29:40.856Z,97604.81
2022-11-25T23:32:12.668Z,97602.94
2022-11-25T23:34:39.813Z,97603.81
2022-11-25T23:37:06.353Z,97606.66
2022-11-25T23:39:32.835Z,97613.19
2022-11-25T23:41:59.139Z,97615.19
2022-11-25T23:44:26.748Z,97620.16
2022-11-25T23:46:54.651Z,97621.59
2022-11-25T23:49:27.148Z,97621.38
2022-11-25T23:51:55.609Z,97620.97
2022-11-25T23:54:22.267Z,97622.91
2022-11-25T23:56:48.582Z,97631.53
2022-11-25T23:59:15.790Z,97633.19
